sensor_id;sensor_type;location;lat;lon;timestamp;P1;durP1;ratioP1;P2;durP2;ratioP2
85935;SDS011;76481;54.346;10.210;2024-02-21T00:00:51;34.88;;;11.93;;
85935;SDS011;76481;54.346;10.210;2024-02-21T00:03:17;35.97;;;12.02;;
85935;SDS011;76481;54.346;10.210;2024-02-21T00:05:43;35.88;;;10.70;;
85935;SDS011;76481;54.346;10.210;2024-02-21T00:08:08;35.17;;;11.43;;
85935;SDS011;76481;54.346;10.210;2024-02-21T00:10:34;38.92;;;9.98;;
85935;SDS011;76481;54.346;10.210;2024-02-21T00:13:00;37.20;;;11.38;;
85935;SDS011;76481;54.346;10.210;2024-02-21T00:15:26;42.00;;;13.02;;
85935;SDS011;76481;54.346;10.210;2024-02-21T00:17:52;35.28;;;12.15;;
85935;SDS011;76481;54.346;10.210;2024-02-21T00:20:17;38.58;;;12.05;;
85935;SDS011;76481;54.346;10.210;2024-02-21T00:22:46;35.65;;;11.57;;
85935;SDS011;76481;54.346;10.210;2024-02-21T00:25:11;37.67;;;13.13;;
85935;SDS011;76481;54.346;10.210;2024-02-21T00:27:37;38.08;;;12.27;;
85935;SDS011;76481;54.346;10.210;2024-02-21T00:30:03;38.15;;;12.30;;
85935;SDS011;76481;54.346;10.210;2024-02-21T00:32:28;47.38;;;14.13;;
85935;SDS011;76481;54.346;10.210;2024-02-21T00:34:54;43.63;;;13.73;;
85935;SDS011;76481;54.346;10.210;2024-02-21T00:37:19;39.00;;;12.55;;
85935;SDS011;76481;54.346;10.210;2024-02-21T00:39:45;37.20;;;13.48;;
85935;SDS011;76481;54.346;10.210;2024-02-21T00:42:10;40.58;;;13.15;;
85935;SDS011;76481;54.346;10.210;2024-02-21T00:44:36;34.50;;;12.32;;
85935;SDS011;76481;54.346;10.210;2024-02-21T00:47:01;35.42;;;13.50;;
85935;SDS011;76481;54.346;10.210;2024-02-21T00:49:27;40.00;;;13.85;;
85935;SDS011;76481;54.346;10.210;2024-02-21T00:51:52;37.55;;;13.55;;
85935;SDS011;76481;54.346;10.210;2024-02-21T00:54:18;33.65;;;12.15;;
85935;SDS011;76481;54.346;10.210;2024-02-21T00:56:43;40.42;;;12.90;;
85935;SDS011;76481;54.346;10.210;2024-02-21T00:59:09;37.78;;;12.77;;
85935;SDS011;76481;54.346;10.210;2024-02-21T01:01:34;36.88;;;12.15;;
85935;SDS011;76481;54.346;10.210;2024-02-21T01:04:00;42.65;;;13.63;;
85935;SDS011;76481;54.346;10.210;2024-02-21T01:06:25;38.45;;;13.05;;
85935;SDS011;76481;54.346;10.210;2024-02-21T01:08:51;39.13;;;13.80;;
85935;SDS011;76481;54.346;10.210;2024-02-21T01:11:16;30.77;;;12.23;;
85935;SDS011;76481;54.346;10.210;2024-02-21T01:13:42;34.95;;;13.43;;
85935;SDS011;76481;54.346;10.210;2024-02-21T01:16:07;36.42;;;12.70;;
85935;SDS011;76481;54.346;10.210;2024-02-21T01:18:33;33.25;;;11.95;;
85935;SDS011;76481;54.346;10.210;2024-02-21T01:20:59;35.03;;;12.75;;
85935;SDS011;76481;54.346;10.210;2024-02-21T01:23:25;38.53;;;13.25;;
85935;SDS011;76481;54.346;10.210;2024-02-21T01:25:50;35.83;;;13.20;;
85935;SDS011;76481;54.346;10.210;2024-02-21T01:28:17;37.65;;;13.50;;
85935;SDS011;76481;54.346;10.210;2024-02-21T01:30:43;28.00;;;10.65;;
85935;SDS011;76481;54.346;10.210;2024-02-21T01:33:09;34.00;;;12.77;;
85935;SDS011;76481;54.346;10.210;2024-02-21T01:35:35;32.22;;;12.13;;
85935;SDS011;76481;54.346;10.210;2024-02-21T01:38:02;35.78;;;13.20;;
85935;SDS011;76481;54.346;10.210;2024-02-21T01:40:27;30.15;;;12.75;;
85935;SDS011;76481;54.346;10.210;2024-02-21T01:42:55;29.80;;;12.68;;
85935;SDS011;76481;54.346;10.210;2024-02-21T01:45:21;28.65;;;11.30;;
85935;SDS011;76481;54.346;10.210;2024-02-21T01:47:47;32.38;;;12.60;;
85935;SDS011;76481;54.346;10.210;2024-02-21T01:50:14;35.13;;;12.00;;
85935;SDS011;76481;54.346;10.210;2024-02-21T01:52:42;33.50;;;11.40;;
85935;SDS011;76481;54.346;10.210;2024-02-21T01:55:11;31.35;;;12.60;;
85935;SDS011;76481;54.346;10.210;2024-02-21T01:57:39;36.35;;;11.98;;
85935;SDS011;76481;54.346;10.210;2024-02-21T02:00:07;33.75;;;11.55;;
85935;SDS011;76481;54.346;10.210;2024-02-21T02:02:36;17.85;;;7.25;;
85935;SDS011;76481;54.346;10.210;2024-02-21T02:05:03;27.35;;;11.05;;
85935;SDS011;76481;54.346;10.210;2024-02-21T02:07:31;28.15;;;10.55;;
85935;SDS011;76481;54.346;10.210;2024-02-21T02:09:56;26.73;;;9.55;;
85935;SDS011;76481;54.346;10.210;2024-02-21T02:12:22;34.45;;;10.38;;
85935;SDS011;76481;54.346;10.210;2024-02-21T02:14:57;26.75;;;10.13;;
85935;SDS011;76481;54.346;10.210;2024-02-21T02:17:26;22.52;;;9.40;;
85935;SDS011;76481;54.346;10.210;2024-02-21T02:19:51;21.65;;;8.52;;
85935;SDS011;76481;54.346;10.210;2024-02-21T02:22:18;22.25;;;8.73;;
85935;SDS011;76481;54.346;10.210;2024-02-21T02:24:47;22.50;;;9.02;;
85935;SDS011;76481;54.346;10.210;2024-02-21T02:27:14;23.30;;;9.30;;
85935;SDS011;76481;54.346;10.210;2024-02-21T02:29:39;22.45;;;9.13;;
85935;SDS011;76481;54.346;10.210;2024-02-21T02:32:05;23.50;;;9.48;;
85935;SDS011;76481;54.346;10.210;2024-02-21T02:34:31;20.25;;;8.85;;
85935;SDS011;76481;54.346;10.210;2024-02-21T02:36:56;23.27;;;9.57;;
85935;SDS011;76481;54.346;10.210;2024-02-21T02:39:21;23.77;;;9.52;;
85935;SDS011;76481;54.346;10.210;2024-02-21T02:41:47;26.77;;;9.48;;
85935;SDS011;76481;54.346;10.210;2024-02-21T02:44:12;19.33;;;7.88;;
85935;SDS011;76481;54.346;10.210;2024-02-21T02:46:40;22.63;;;9.02;;
85935;SDS011;76481;54.346;10.210;2024-02-21T02:49:06;20.25;;;8.85;;
85935;SDS011;76481;54.346;10.210;2024-02-21T02:51:31;20.45;;;8.40;;
85935;SDS011;76481;54.346;10.210;2024-02-21T02:53:57;20.83;;;8.60;;
85935;SDS011;76481;54.346;10.210;2024-02-21T02:56:22;21.30;;;7.60;;
85935;SDS011;76481;54.346;10.210;2024-02-21T02:58:48;20.17;;;8.00;;
85935;SDS011;76481;54.346;10.210;2024-02-21T03:01:13;17.38;;;7.57;;
85935;SDS011;76481;54.346;10.210;2024-02-21T03:03:40;18.75;;;6.82;;
85935;SDS011;76481;54.346;10.210;2024-02-21T03:06:05;15.30;;;6.90;;
85935;SDS011;76481;54.346;10.210;2024-02-21T03:08:31;14.05;;;6.30;;
85935;SDS011;76481;54.346;10.210;2024-02-21T03:10:57;10.07;;;4.68;;
85935;SDS011;76481;54.346;10.210;2024-02-21T03:13:25;8.70;;;3.75;;
85935;SDS011;76481;54.346;10.210;2024-02-21T03:15:50;11.88;;;4.78;;
85935;SDS011;76481;54.346;10.210;2024-02-21T03:18:16;13.65;;;5.05;;
85935;SDS011;76481;54.346;10.210;2024-02-21T03:20:41;9.30;;;3.60;;
85935;SDS011;76481;54.346;10.210;2024-02-21T03:23:07;9.02;;;3.97;;
85935;SDS011;76481;54.346;10.210;2024-02-21T03:25:32;7.50;;;3.63;;
85935;SDS011;76481;54.346;10.210;2024-02-21T03:27:58;8.13;;;3.65;;
85935;SDS011;76481;54.346;10.210;2024-02-21T03:30:23;4.50;;;2.78;;
85935;SDS011;76481;54.346;10.210;2024-02-21T03:32:49;7.15;;;2.45;;
85935;SDS011;76481;54.346;10.210;2024-02-21T03:35:14;5.75;;;2.97;;
85935;SDS011;76481;54.346;10.210;2024-02-21T03:37:40;5.85;;;2.90;;
85935;SDS011;76481;54.346;10.210;2024-02-21T03:40:06;5.70;;;3.10;;
85935;SDS011;76481;54.346;10.210;2024-02-21T03:42:33;5.15;;;2.50;;
85935;SDS011;76481;54.346;10.210;2024-02-21T03:44:59;5.53;;;2.22;;
85935;SDS011;76481;54.346;10.210;2024-02-21T03:47:24;3.50;;;2.17;;
85935;SDS011;76481;54.346;10.210;2024-02-21T03:49:50;3.00;;;2.20;;
85935;SDS011;76481;54.346;10.210;2024-02-21T03:52:15;4.30;;;2.13;;
85935;SDS011;76481;54.346;10.210;2024-02-21T03:54:41;3.17;;;1.55;;
85935;SDS011;76481;54.346;10.210;2024-02-21T03:57:07;2.60;;;1.38;;
85935;SDS011;76481;54.346;10.210;2024-02-21T03:59:32;9.77;;;2.10;;
85935;SDS011;76481;54.346;10.210;2024-02-21T04:01:58;2.88;;;1.40;;
85935;SDS011;76481;54.346;10.210;2024-02-21T04:04:24;4.15;;;1.60;;
85935;SDS011;76481;54.346;10.210;2024-02-21T04:06:49;6.78;;;1.70;;
85935;SDS011;76481;54.346;10.210;2024-02-21T04:09:16;5.72;;;1.73;;
85935;SDS011;76481;54.346;10.210;2024-02-21T04:11:42;4.45;;;1.70;;
85935;SDS011;76481;54.346;10.210;2024-02-21T04:14:07;8.52;;;2.08;;
85935;SDS011;76481;54.346;10.210;2024-02-21T04:16:33;5.35;;;1.70;;
85935;SDS011;76481;54.346;10.210;2024-02-21T04:18:59;7.90;;;2.25;;
85935;SDS011;76481;54.346;10.210;2024-02-21T04:21:25;5.15;;;1.90;;
85935;SDS011;76481;54.346;10.210;2024-02-21T04:23:50;7.13;;;2.00;;
85935;SDS011;76481;54.346;10.210;2024-02-21T04:26:16;7.93;;;1.98;;
85935;SDS011;76481;54.346;10.210;2024-02-21T04:28:41;9.63;;;2.80;;
85935;SDS011;76481;54.346;10.210;2024-02-21T04:31:07;8.55;;;2.28;;
85935;SDS011;76481;54.346;10.210;2024-02-21T04:33:32;10.00;;;2.88;;
85935;SDS011;76481;54.346;10.210;2024-02-21T04:35:58;10.63;;;2.63;;
85935;SDS011;76481;54.346;10.210;2024-02-21T04:38:23;8.27;;;2.42;;
85935;SDS011;76481;54.346;10.210;2024-02-21T04:40:49;9.45;;;2.92;;
85935;SDS011;76481;54.346;10.210;2024-02-21T04:43:14;12.75;;;2.97;;
85935;SDS011;76481;54.346;10.210;2024-02-21T04:45:40;12.57;;;3.00;;
85935;SDS011;76481;54.346;10.210;2024-02-21T04:48:05;15.93;;;3.38;;
85935;SDS011;76481;54.346;10.210;2024-02-21T04:50:31;7.25;;;2.95;;
85935;SDS011;76481;54.346;10.210;2024-02-21T04:52:56;13.50;;;3.30;;
85935;SDS011;76481;54.346;10.210;2024-02-21T04:55:22;22.15;;;3.83;;
85935;SDS011;76481;54.346;10.210;2024-02-21T04:57:47;12.07;;;3.10;;
85935;SDS011;76481;54.346;10.210;2024-02-21T05:00:13;15.27;;;3.28;;
85935;SDS011;76481;54.346;10.210;2024-02-21T05:02:38;23.88;;;4.00;;
85935;SDS011;76481;54.346;10.210;2024-02-21T05:05:04;23.92;;;4.15;;
85935;SDS011;76481;54.346;10.210;2024-02-21T05:07:30;20.27;;;4.57;;
85935;SDS011;76481;54.346;10.210;2024-02-21T05:09:55;17.40;;;3.60;;
85935;SDS011;76481;54.346;10.210;2024-02-21T05:12:21;16.63;;;3.88;;
85935;SDS011;76481;54.346;10.210;2024-02-21T05:14:47;17.73;;;4.00;;
85935;SDS011;76481;54.346;10.210;2024-02-21T05:17:12;20.00;;;3.72;;
85935;SDS011;76481;54.346;10.210;2024-02-21T05:19:37;15.52;;;3.67;;
85935;SDS011;76481;54.346;10.210;2024-02-21T05:22:03;19.63;;;3.72;;
85935;SDS011;76481;54.346;10.210;2024-02-21T05:24:29;22.55;;;3.50;;
85935;SDS011;76481;54.346;10.210;2024-02-21T05:26:54;20.58;;;3.47;;
85935;SDS011;76481;54.346;10.210;2024-02-21T05:29:20;21.98;;;3.83;;
85935;SDS011;76481;54.346;10.210;2024-02-21T05:34:17;19.30;;;4.03;;
85935;SDS011;76481;54.346;10.210;2024-02-21T05:36:43;13.07;;;3.10;;
85935;SDS011;76481;54.346;10.210;2024-02-21T05:39:09;18.73;;;4.15;;
85935;SDS011;76481;54.346;10.210;2024-02-21T05:41:34;20.08;;;4.32;;
85935;SDS011;76481;54.346;10.210;2024-02-21T05:44:00;18.55;;;4.20;;
85935;SDS011;76481;54.346;10.210;2024-02-21T05:46:25;19.38;;;3.60;;
85935;SDS011;76481;54.346;10.210;2024-02-21T05:48:51;21.90;;;3.78;;
85935;SDS011;76481;54.346;10.210;2024-02-21T05:51:16;18.65;;;3.72;;
85935;SDS011;76481;54.346;10.210;2024-02-21T05:53:41;24.88;;;4.20;;
85935;SDS011;76481;54.346;10.210;2024-02-21T05:56:10;19.27;;;3.50;;
85935;SDS011;76481;54.346;10.210;2024-02-21T05:58:37;17.90;;;3.90;;
85935;SDS011;76481;54.346;10.210;2024-02-21T06:01:02;16.88;;;3.78;;
85935;SDS011;76481;54.346;10.210;2024-02-21T06:03:28;17.63;;;3.50;;
85935;SDS011;76481;54.346;10.210;2024-02-21T06:05:54;11.85;;;3.25;;
85935;SDS011;76481;54.346;10.210;2024-02-21T06:08:20;20.15;;;4.22;;
85935;SDS011;76481;54.346;10.210;2024-02-21T06:10:45;14.68;;;3.08;;
85935;SDS011;76481;54.346;10.210;2024-02-21T06:13:11;16.98;;;3.60;;
85935;SDS011;76481;54.346;10.210;2024-02-21T06:15:36;23.48;;;4.70;;
85935;SDS011;76481;54.346;10.210;2024-02-21T06:18:02;11.45;;;3.30;;
85935;SDS011;76481;54.346;10.210;2024-02-21T06:20:27;18.10;;;3.45;;
85935;SDS011;76481;54.346;10.210;2024-02-21T06:22:53;12.27;;;2.83;;
85935;SDS011;76481;54.346;10.210;2024-02-21T06:25:19;20.27;;;2.85;;
85935;SDS011;76481;54.346;10.210;2024-02-21T06:27:45;17.27;;;3.53;;
85935;SDS011;76481;54.346;10.210;2024-02-21T06:30:10;22.30;;;3.83;;
85935;SDS011;76481;54.346;10.210;2024-02-21T06:32:36;22.15;;;3.50;;
85935;SDS011;76481;54.346;10.210;2024-02-21T06:35:01;17.58;;;3.65;;
85935;SDS011;76481;54.346;10.210;2024-02-21T06:37:27;16.77;;;3.53;;
85935;SDS011;76481;54.346;10.210;2024-02-21T06:39:53;20.27;;;3.47;;
85935;SDS011;76481;54.346;10.210;2024-02-21T06:42:20;20.45;;;4.13;;
85935;SDS011;76481;54.346;10.210;2024-02-21T06:44:46;24.05;;;3.90;;
85935;SDS011;76481;54.346;10.210;2024-02-21T06:47:12;21.77;;;3.35;;
85935;SDS011;76481;54.346;10.210;2024-02-21T06:49:37;19.77;;;3.90;;
85935;SDS011;76481;54.346;10.210;2024-02-21T06:52:04;21.80;;;3.67;;
85935;SDS011;76481;54.346;10.210;2024-02-21T06:54:30;21.58;;;3.75;;
85935;SDS011;76481;54.346;10.210;2024-02-21T06:56:56;15.63;;;3.00;;
85935;SDS011;76481;54.346;10.210;2024-02-21T06:59:21;21.08;;;3.03;;
85935;SDS011;76481;54.346;10.210;2024-02-21T07:01:48;20.25;;;3.75;;
85935;SDS011;76481;54.346;10.210;2024-02-21T07:04:14;14.18;;;4.10;;
85935;SDS011;76481;54.346;10.210;2024-02-21T07:06:40;22.95;;;3.47;;
85935;SDS011;76481;54.346;10.210;2024-02-21T07:09:06;29.90;;;3.50;;
85935;SDS011;76481;54.346;10.210;2024-02-21T07:11:31;19.42;;;3.58;;
85935;SDS011;76481;54.346;10.210;2024-02-21T07:13:57;19.88;;;3.60;;
85935;SDS011;76481;54.346;10.210;2024-02-21T07:16:22;19.40;;;3.05;;
85935;SDS011;76481;54.346;10.210;2024-02-21T07:18:48;17.60;;;3.70;;
85935;SDS011;76481;54.346;10.210;2024-02-21T07:21:13;14.18;;;2.63;;
85935;SDS011;76481;54.346;10.210;2024-02-21T07:23:43;20.98;;;3.30;;
85935;SDS011;76481;54.346;10.210;2024-02-21T07:26:09;14.80;;;3.38;;
85935;SDS011;76481;54.346;10.210;2024-02-21T07:28:34;18.42;;;2.67;;
85935;SDS011;76481;54.346;10.210;2024-02-21T07:30:59;19.90;;;3.38;;
85935;SDS011;76481;54.346;10.210;2024-02-21T07:33:25;14.82;;;3.53;;
85935;SDS011;76481;54.346;10.210;2024-02-21T07:35:51;14.00;;;2.78;;
85935;SDS011;76481;54.346;10.210;2024-02-21T07:38:16;15.55;;;3.20;;
85935;SDS011;76481;54.346;10.210;2024-02-21T07:40:46;15.43;;;3.20;;
85935;SDS011;76481;54.346;10.210;2024-02-21T07:43:11;14.38;;;2.40;;
85935;SDS011;76481;54.346;10.210;2024-02-21T07:45:37;16.05;;;2.78;;
85935;SDS011;76481;54.346;10.210;2024-02-21T07:48:05;14.38;;;2.72;;
85935;SDS011;76481;54.346;10.210;2024-02-21T07:50:30;13.05;;;2.70;;
85935;SDS011;76481;54.346;10.210;2024-02-21T07:52:56;14.13;;;3.10;;
85935;SDS011;76481;54.346;10.210;2024-02-21T07:55:21;16.85;;;2.97;;
85935;SDS011;76481;54.346;10.210;2024-02-21T07:57:47;19.98;;;3.40;;
85935;SDS011;76481;54.346;10.210;2024-02-21T08:00:12;22.90;;;3.53;;
85935;SDS011;76481;54.346;10.210;2024-02-21T08:02:45;18.33;;;3.35;;
85935;SDS011;76481;54.346;10.210;2024-02-21T08:05:11;18.25;;;4.00;;
85935;SDS011;76481;54.346;10.210;2024-02-21T08:07:37;19.95;;;3.38;;
85935;SDS011;76481;54.346;10.210;2024-02-21T08:10:03;18.10;;;3.80;;
85935;SDS011;76481;54.346;10.210;2024-02-21T08:12:30;17.63;;;2.78;;
85935;SDS011;76481;54.346;10.210;2024-02-21T08:14:55;17.70;;;2.55;;
85935;SDS011;76481;54.346;10.210;2024-02-21T08:17:21;19.58;;;2.92;;
85935;SDS011;76481;54.346;10.210;2024-02-21T08:19:48;22.45;;;3.35;;
85935;SDS011;76481;54.346;10.210;2024-02-21T08:22:14;16.95;;;3.00;;
85935;SDS011;76481;54.346;10.210;2024-02-21T08:24:40;14.98;;;2.70;;
85935;SDS011;76481;54.346;10.210;2024-02-21T08:27:05;13.60;;;2.38;;
85935;SDS011;76481;54.346;10.210;2024-02-21T08:29:31;17.85;;;3.05;;
85935;SDS011;76481;54.346;10.210;2024-02-21T08:31:56;16.02;;;2.78;;
85935;SDS011;76481;54.346;10.210;2024-02-21T08:34:22;14.30;;;2.22;;
85935;SDS011;76481;54.346;10.210;2024-02-21T08:36:47;16.48;;;3.15;;
85935;SDS011;76481;54.346;10.210;2024-02-21T08:39:13;18.52;;;2.25;;
85935;SDS011;76481;54.346;10.210;2024-02-21T08:41:41;13.98;;;2.40;;
85935;SDS011;76481;54.346;10.210;2024-02-21T08:44:07;14.20;;;2.45;;
85935;SDS011;76481;54.346;10.210;2024-02-21T08:46:33;11.57;;;2.30;;
85935;SDS011;76481;54.346;10.210;2024-02-21T08:48:58;19.17;;;2.85;;
85935;SDS011;76481;54.346;10.210;2024-02-21T08:51:24;17.98;;;2.97;;
85935;SDS011;76481;54.346;10.210;2024-02-21T08:53:50;13.07;;;2.13;;
85935;SDS011;76481;54.346;10.210;2024-02-21T08:56:15;12.52;;;2.47;;
85935;SDS011;76481;54.346;10.210;2024-02-21T08:58:41;11.10;;;2.95;;
85935;SDS011;76481;54.346;10.210;2024-02-21T09:01:07;15.50;;;3.38;;
85935;SDS011;76481;54.346;10.210;2024-02-21T09:03:36;17.60;;;2.30;;
85935;SDS011;76481;54.346;10.210;2024-02-21T09:06:03;13.15;;;2.13;;
85935;SDS011;76481;54.346;10.210;2024-02-21T09:08:29;15.00;;;2.20;;
85935;SDS011;76481;54.346;10.210;2024-02-21T09:10:55;17.10;;;2.88;;
85935;SDS011;76481;54.346;10.210;2024-02-21T09:13:20;13.70;;;2.20;;
85935;SDS011;76481;54.346;10.210;2024-02-21T09:15:47;16.20;;;2.58;;
85935;SDS011;76481;54.346;10.210;2024-02-21T09:18:15;15.25;;;2.30;;
85935;SDS011;76481;54.346;10.210;2024-02-21T09:20:42;14.18;;;2.80;;
85935;SDS011;76481;54.346;10.210;2024-02-21T09:23:08;16.60;;;2.20;;
85935;SDS011;76481;54.346;10.210;2024-02-21T09:25:33;14.55;;;2.22;;
85935;SDS011;76481;54.346;10.210;2024-02-21T09:28:00;19.77;;;2.70;;
85935;SDS011;76481;54.346;10.210;2024-02-21T09:30:27;12.55;;;2.13;;
85935;SDS011;76481;54.346;10.210;2024-02-21T09:32:52;10.40;;;2.42;;
85935;SDS011;76481;54.346;10.210;2024-02-21T09:35:18;13.35;;;2.85;;
85935;SDS011;76481;54.346;10.210;2024-02-21T09:37:44;16.63;;;2.38;;
85935;SDS011;76481;54.346;10.210;2024-02-21T09:40:09;14.73;;;3.00;;
85935;SDS011;76481;54.346;10.210;2024-02-21T09:42:36;9.48;;;1.73;;
85935;SDS011;76481;54.346;10.210;2024-02-21T09:45:21;13.73;;;2.15;;
85935;SDS011;76481;54.346;10.210;2024-02-21T09:50:23;12.93;;;2.40;;
85935;SDS011;76481;54.346;10.210;2024-02-21T09:52:50;10.88;;;2.22;;
85935;SDS011;76481;54.346;10.210;2024-02-21T09:55:17;18.00;;;2.53;;
85935;SDS011;76481;54.346;10.210;2024-02-21T09:57:44;10.80;;;2.10;;
85935;SDS011;76481;54.346;10.210;2024-02-21T10:00:09;13.05;;;2.30;;
85935;SDS011;76481;54.346;10.210;2024-02-21T10:02:39;14.00;;;2.20;;
85935;SDS011;76481;54.346;10.210;2024-02-21T10:05:04;16.15;;;2.53;;
85935;SDS011;76481;54.346;10.210;2024-02-21T10:07:33;13.00;;;2.85;;
85935;SDS011;76481;54.346;10.210;2024-02-21T10:10:02;14.55;;;2.20;;
85935;SDS011;76481;54.346;10.210;2024-02-21T10:12:28;10.77;;;2.67;;
85935;SDS011;76481;54.346;10.210;2024-02-21T10:15:03;10.35;;;2.35;;
85935;SDS011;76481;54.346;10.210;2024-02-21T10:17:30;16.20;;;2.45;;
85935;SDS011;76481;54.346;10.210;2024-02-21T10:20:06;11.18;;;2.15;;
85935;SDS011;76481;54.346;10.210;2024-02-21T10:22:35;12.95;;;2.00;;
85935;SDS011;76481;54.346;10.210;2024-02-21T10:25:11;11.48;;;2.22;;
85935;SDS011;76481;54.346;10.210;2024-02-21T10:27:40;11.50;;;1.80;;
85935;SDS011;76481;54.346;10.210;2024-02-21T10:30:13;7.47;;;1.88;;
85935;SDS011;76481;54.346;10.210;2024-02-21T10:32:49;13.13;;;2.30;;
85935;SDS011;76481;54.346;10.210;2024-02-21T10:35:24;10.50;;;2.25;;
85935;SDS011;76481;54.346;10.210;2024-02-21T10:37:59;17.80;;;2.78;;
85935;SDS011;76481;54.346;10.210;2024-02-21T10:40:25;11.15;;;2.20;;
85935;SDS011;76481;54.346;10.210;2024-02-21T10:42:56;10.00;;;2.08;;
85935;SDS011;76481;54.346;10.210;2024-02-21T10:45:30;10.43;;;2.10;;
85935;SDS011;76481;54.346;10.210;2024-02-21T10:48:01;12.05;;;2.60;;
85935;SDS011;76481;54.346;10.210;2024-02-21T10:50:37;13.73;;;2.53;;
85935;SDS011;76481;54.346;10.210;2024-02-21T10:58:47;12.02;;;2.28;;
85935;SDS011;76481;54.346;10.210;2024-02-21T11:01:14;13.80;;;2.65;;
85935;SDS011;76481;54.346;10.210;2024-02-21T11:03:43;9.35;;;1.98;;
85935;SDS011;76481;54.346;10.210;2024-02-21T11:06:13;11.00;;;1.85;;
85935;SDS011;76481;54.346;10.210;2024-02-21T11:08:40;10.45;;;1.92;;
85935;SDS011;76481;54.346;10.210;2024-02-21T11:11:05;9.13;;;2.30;;
85935;SDS011;76481;54.346;10.210;2024-02-21T11:13:37;11.25;;;1.90;;
85935;SDS011;76481;54.346;10.210;2024-02-21T11:16:09;12.65;;;2.15;;
85935;SDS011;76481;54.346;10.210;2024-02-21T11:18:39;11.73;;;1.83;;
85935;SDS011;76481;54.346;10.210;2024-02-21T11:21:04;12.88;;;2.60;;
85935;SDS011;76481;54.346;10.210;2024-02-21T11:23:30;13.55;;;2.25;;
85935;SDS011;76481;54.346;10.210;2024-02-21T11:26:06;13.48;;;2.58;;
85935;SDS011;76481;54.346;10.210;2024-02-21T11:28:35;12.13;;;2.27;;
85935;SDS011;76481;54.346;10.210;2024-02-21T11:31:12;11.75;;;2.28;;
85935;SDS011;76481;54.346;10.210;2024-02-21T11:33:42;9.63;;;1.90;;
85935;SDS011;76481;54.346;10.210;2024-02-21T11:38:34;9.18;;;1.83;;
85935;SDS011;76481;54.346;10.210;2024-02-21T11:41:00;9.55;;;2.67;;
85935;SDS011;76481;54.346;10.210;2024-02-21T11:43:25;13.60;;;2.40;;
85935;SDS011;76481;54.346;10.210;2024-02-21T11:45:57;11.23;;;2.63;;
85935;SDS011;76481;54.346;10.210;2024-02-21T11:48:25;9.35;;;2.50;;
85935;SDS011;76481;54.346;10.210;2024-02-21T11:50:54;8.95;;;2.10;;
85935;SDS011;76481;54.346;10.210;2024-02-21T11:53:20;9.77;;;2.28;;
85935;SDS011;76481;54.346;10.210;2024-02-21T11:55:46;13.10;;;2.25;;
85935;SDS011;76481;54.346;10.210;2024-02-21T11:58:11;7.47;;;2.03;;
85935;SDS011;76481;54.346;10.210;2024-02-21T12:00:37;9.40;;;2.30;;
85935;SDS011;76481;54.346;10.210;2024-02-21T12:03:03;7.43;;;1.98;;
85935;SDS011;76481;54.346;10.210;2024-02-21T12:05:30;8.25;;;2.08;;
85935;SDS011;76481;54.346;10.210;2024-02-21T12:07:56;9.43;;;2.40;;
85935;SDS011;76481;54.346;10.210;2024-02-21T12:10:23;12.18;;;2.60;;
85935;SDS011;76481;54.346;10.210;2024-02-21T12:12:51;14.80;;;2.50;;
85935;SDS011;76481;54.346;10.210;2024-02-21T12:15:20;10.23;;;2.30;;
85935;SDS011;76481;54.346;10.210;2024-02-21T12:17:45;11.45;;;2.50;;
85935;SDS011;76481;54.346;10.210;2024-02-21T12:20:11;9.50;;;2.50;;
85935;SDS011;76481;54.346;10.210;2024-02-21T12:22:41;10.63;;;2.40;;
85935;SDS011;76481;54.346;10.210;2024-02-21T12:27:48;11.55;;;3.15;;
85935;SDS011;76481;54.346;10.210;2024-02-21T12:30:14;10.45;;;2.70;;
85935;SDS011;76481;54.346;10.210;2024-02-21T12:32:40;8.05;;;2.63;;
85935;SDS011;76481;54.346;10.210;2024-02-21T12:35:06;11.18;;;2.47;;
85935;SDS011;76481;54.346;10.210;2024-02-21T12:37:32;12.05;;;3.15;;
85935;SDS011;76481;54.346;10.210;2024-02-21T12:39:58;9.57;;;2.88;;
85935;SDS011;76481;54.346;10.210;2024-02-21T12:42:24;14.25;;;3.42;;
85935;SDS011;76481;54.346;10.210;2024-02-21T12:44:51;10.20;;;2.70;;
85935;SDS011;76481;54.346;10.210;2024-02-21T12:47:17;9.15;;;2.55;;
85935;SDS011;76481;54.346;10.210;2024-02-21T12:49:45;9.55;;;2.63;;
85935;SDS011;76481;54.346;10.210;2024-02-21T12:52:10;7.60;;;2.42;;
85935;SDS011;76481;54.346;10.210;2024-02-21T12:54:36;9.57;;;2.35;;
85935;SDS011;76481;54.346;10.210;2024-02-21T12:57:03;8.90;;;2.70;;
85935;SDS011;76481;54.346;10.210;2024-02-21T12:59:29;8.57;;;2.65;;
85935;SDS011;76481;54.346;10.210;2024-02-21T13:01:54;7.85;;;2.67;;
85935;SDS011;76481;54.346;10.210;2024-02-21T13:04:20;7.93;;;2.92;;
85935;SDS011;76481;54.346;10.210;2024-02-21T13:06:48;5.57;;;2.72;;
85935;SDS011;76481;54.346;10.210;2024-02-21T13:09:14;7.50;;;2.78;;
85935;SDS011;76481;54.346;10.210;2024-02-21T13:11:40;7.15;;;2.40;;
85935;SDS011;76481;54.346;10.210;2024-02-21T13:14:06;6.75;;;2.60;;
85935;SDS011;76481;54.346;10.210;2024-02-21T13:16:32;7.13;;;2.50;;
85935;SDS011;76481;54.346;10.210;2024-02-21T13:19:04;7.70;;;3.28;;
85935;SDS011;76481;54.346;10.210;2024-02-21T13:21:32;8.85;;;2.95;;
85935;SDS011;76481;54.346;10.210;2024-02-21T13:23:57;5.53;;;2.40;;
85935;SDS011;76481;54.346;10.210;2024-02-21T13:26:23;6.93;;;2.70;;
85935;SDS011;76481;54.346;10.210;2024-02-21T13:28:49;5.30;;;2.80;;
85935;SDS011;76481;54.346;10.210;2024-02-21T13:31:14;4.38;;;2.67;;
85935;SDS011;76481;54.346;10.210;2024-02-21T13:33:41;5.32;;;2.67;;
85935;SDS011;76481;54.346;10.210;2024-02-21T13:36:09;4.82;;;2.80;;
85935;SDS011;76481;54.346;10.210;2024-02-21T13:38:35;5.43;;;2.40;;
85935;SDS011;76481;54.346;10.210;2024-02-21T13:41:00;4.85;;;2.30;;
85935;SDS011;76481;54.346;10.210;2024-02-21T13:43:26;4.38;;;2.28;;
85935;SDS011;76481;54.346;10.210;2024-02-21T13:45:58;6.47;;;2.65;;
85935;SDS011;76481;54.346;10.210;2024-02-21T13:48:24;5.22;;;2.58;;
85935;SDS011;76481;54.346;10.210;2024-02-21T13:50:50;5.68;;;3.15;;
85935;SDS011;76481;54.346;10.210;2024-02-21T13:53:15;9.43;;;3.38;;
85935;SDS011;76481;54.346;10.210;2024-02-21T13:55:44;6.55;;;3.25;;
85935;SDS011;76481;54.346;10.210;2024-02-21T13:58:10;7.00;;;3.58;;
85935;SDS011;76481;54.346;10.210;2024-02-21T14:00:36;7.82;;;3.28;;
85935;SDS011;76481;54.346;10.210;2024-02-21T14:03:01;6.47;;;3.42;;
85935;SDS011;76481;54.346;10.210;2024-02-21T14:05:27;8.60;;;4.13;;
85935;SDS011;76481;54.346;10.210;2024-02-21T14:07:53;8.63;;;3.80;;
85935;SDS011;76481;54.346;10.210;2024-02-21T14:10:20;7.95;;;3.70;;
85935;SDS011;76481;54.346;10.210;2024-02-21T14:12:46;18.58;;;10.18;;
85935;SDS011;76481;54.346;10.210;2024-02-21T14:15:13;11.40;;;6.35;;
85935;SDS011;76481;54.346;10.210;2024-02-21T14:17:38;10.77;;;5.93;;
85935;SDS011;76481;54.346;10.210;2024-02-21T14:20:04;11.57;;;5.90;;
85935;SDS011;76481;54.346;10.210;2024-02-21T14:22:31;9.52;;;4.40;;
85935;SDS011;76481;54.346;10.210;2024-02-21T14:24:57;12.98;;;5.25;;
85935;SDS011;76481;54.346;10.210;2024-02-21T14:27:22;14.55;;;6.10;;
85935;SDS011;76481;54.346;10.210;2024-02-21T14:29:48;10.73;;;4.47;;
85935;SDS011;76481;54.346;10.210;2024-02-21T14:32:13;12.75;;;5.28;;
85935;SDS011;76481;54.346;10.210;2024-02-21T14:34:39;15.77;;;6.00;;